sensor_id;sensor_type;location;lat;lon;timestamp;temperature;humidity
1025;DHT22;501;48.214;11.350;2022-12-18T00:00:58;-2.30;54.10
1025;DHT22;501;48.214;11.350;2022-12-18T00:03:23;-2.40;52.90
1025;DHT22;501;48.214;11.350;2022-12-18T00:05:50;-2.40;53.40
1025;DHT22;501;48.214;11.350;2022-12-18T00:08:17;-2.40;53.30
1025;DHT22;501;48.214;11.350;2022-12-18T00:10:43;-2.50;53.30
1025;DHT22;501;48.214;11.350;2022-12-18T00:13:09;-2.40;53.40
1025;DHT22;501;48.214;11.350;2022-12-18T00:15:36;-2.50;53.20
1025;DHT22;501;48.214;11.350;2022-12-18T00:18:02;-2.50;52.90
1025;DHT22;501;48.214;11.350;2022-12-18T00:20:27;-2.50;52.90
1025;DHT22;501;48.214;11.350;2022-12-18T00:22:53;-2.50;52.40
1025;DHT22;501;48.214;11.350;2022-12-18T00:25:19;-2.50;51.90
1025;DHT22;501;48.214;11.350;2022-12-18T00:27:45;-2.50;51.40
1025;DHT22;501;48.214;11.350;2022-12-18T00:30:11;-2.60;50.80
1025;DHT22;501;48.214;11.350;2022-12-18T00:32:37;-2.60;50.30
1025;DHT22;501;48.214;11.350;2022-12-18T00:35:03;-2.60;50.30
1025;DHT22;501;48.214;11.350;2022-12-18T00:37:29;-2.70;50.00
1025;DHT22;501;48.214;11.350;2022-12-18T00:39:55;-2.70;50.10
1025;DHT22;501;48.214;11.350;2022-12-18T00:42:20;-2.80;50.20
1025;DHT22;501;48.214;11.350;2022-12-18T00:45:05;-2.80;51.20
1025;DHT22;501;48.214;11.350;2022-12-18T00:47:30;-2.80;51.90
1025;DHT22;501;48.214;11.350;2022-12-18T00:49:56;-2.90;52.20
1025;DHT22;501;48.214;11.350;2022-12-18T00:52:21;-2.90;52.40
1025;DHT22;501;48.214;11.350;2022-12-18T00:54:47;-2.90;52.80
1025;DHT22;501;48.214;11.350;2022-12-18T00:57:13;-2.90;53.50
1025;DHT22;501;48.214;11.350;2022-12-18T00:59:38;-3.00;52.80
1025;DHT22;501;48.214;11.350;2022-12-18T01:02:04;-3.00;53.00
1025;DHT22;501;48.214;11.350;2022-12-18T01:04:31;-3.00;53.00
1025;DHT22;501;48.214;11.350;2022-12-18T01:06:57;-3.00;52.90
1025;DHT22;501;48.214;11.350;2022-12-18T01:09:23;-3.00;52.60
1025;DHT22;501;48.214;11.350;2022-12-18T01:11:48;-3.10;52.70
1025;DHT22;501;48.214;11.350;2022-12-18T01:14:14;-3.10;51.90
1025;DHT22;501;48.214;11.350;2022-12-18T01:16:39;-3.20;51.50
1025;DHT22;501;48.214;11.350;2022-12-18T01:19:05;-3.20;51.70
1025;DHT22;501;48.214;11.350;2022-12-18T01:21:31;-3.20;51.50
1025;DHT22;501;48.214;11.350;2022-12-18T01:23:57;-3.30;52.10
1025;DHT22;501;48.214;11.350;2022-12-18T01:26:24;-3.30;51.70
1025;DHT22;501;48.214;11.350;2022-12-18T01:28:50;-3.30;51.60
1025;DHT22;501;48.214;11.350;2022-12-18T01:31:21;-3.40;51.40
1025;DHT22;501;48.214;11.350;2022-12-18T01:33:48;-3.40;51.50
1025;DHT22;501;48.214;11.350;2022-12-18T01:36:29;-3.50;51.80
1025;DHT22;501;48.214;11.350;2022-12-18T01:38:55;-3.60;52.30
1025;DHT22;501;48.214;11.350;2022-12-18T01:41:24;-3.60;52.40
1025;DHT22;501;48.214;11.350;2022-12-18T01:43:55;-3.70;52.90
1025;DHT22;501;48.214;11.350;2022-12-18T01:46:24;-3.70;53.60
1025;DHT22;501;48.214;11.350;2022-12-18T01:49:00;-3.80;54.20
1025;DHT22;501;48.214;11.350;2022-12-18T01:51:27;-3.80;55.10
1025;DHT22;501;48.214;11.350;2022-12-18T01:53:54;-3.80;55.70
1025;DHT22;501;48.214;11.350;2022-12-18T01:56:21;-3.80;55.20
1025;DHT22;501;48.214;11.350;2022-12-18T01:59:00;-3.80;55.20
1025;DHT22;501;48.214;11.350;2022-12-18T02:01:29;-3.80;55.20
1025;DHT22;501;48.214;11.350;2022-12-18T02:04:21;-3.90;55.50
1025;DHT22;501;48.214;11.350;2022-12-18T02:06:44;-3.90;55.70
1025;DHT22;501;48.214;11.350;2022-12-18T02:09:19;-3.90;56.70
1025;DHT22;501;48.214;11.350;2022-12-18T02:12:19;-3.90;57.00
1025;DHT22;501;48.214;11.350;2022-12-18T02:19:51;-3.80;57.50
1025;DHT22;501;48.214;11.350;2022-12-18T02:27:40;-3.80;57.10
1025;DHT22;501;48.214;11.350;2022-12-18T02:30:08;-3.80;57.50
1025;DHT22;501;48.214;11.350;2022-12-18T02:32:40;-3.80;58.00
1025;DHT22;501;48.214;11.350;2022-12-18T02:35:11;-3.80;58.10
1025;DHT22;501;48.214;11.350;2022-12-18T02:37:38;-3.70;58.40
1025;DHT22;501;48.214;11.350;2022-12-18T02:40:05;-3.70;58.40
1025;DHT22;501;48.214;11.350;2022-12-18T02:42:32;-3.70;58.40
1025;DHT22;501;48.214;11.350;2022-12-18T02:44:57;-3.60;58.20
1025;DHT22;501;48.214;11.350;2022-12-18T02:47:28;-3.60;58.00
1025;DHT22;501;48.214;11.350;2022-12-18T02:53:17;-3.50;57.40
1025;DHT22;501;48.214;11.350;2022-12-18T02:58:32;-3.40;57.60
1025;DHT22;501;48.214;11.350;2022-12-18T03:01:11;-3.40;57.40
1025;DHT22;501;48.214;11.350;2022-12-18T03:03:42;-3.30;57.40
1025;DHT22;501;48.214;11.350;2022-12-18T03:06:33;-3.30;57.30
1025;DHT22;501;48.214;11.350;2022-12-18T03:09:07;-3.30;57.40
1025;DHT22;501;48.214;11.350;2022-12-18T03:11:36;-3.30;57.40
1025;DHT22;501;48.214;11.350;2022-12-18T03:14:23;-3.30;57.40
1025;DHT22;501;48.214;11.350;2022-12-18T03:16:51;-3.20;57.40
1025;DHT22;501;48.214;11.350;2022-12-18T03:19:21;-3.20;56.90
1025;DHT22;501;48.214;11.350;2022-12-18T03:21:51;-3.20;56.80
1025;DHT22;501;48.214;11.350;2022-12-18T03:24:18;-3.10;56.70
1025;DHT22;501;48.214;11.350;2022-12-18T03:26:48;-3.10;56.50
1025;DHT22;501;48.214;11.350;2022-12-18T03:29:22;-3.10;55.90
1025;DHT22;501;48.214;11.350;2022-12-18T03:31:55;-3.10;55.80
1025;DHT22;501;48.214;11.350;2022-12-18T03:34:28;-3.10;55.80
1025;DHT22;501;48.214;11.350;2022-12-18T03:36:55;-3.10;55.40
1025;DHT22;501;48.214;11.350;2022-12-18T03:39:20;-3.10;55.70
1025;DHT22;501;48.214;11.350;2022-12-18T03:52:41;-3.10;54.70
1025;DHT22;501;48.214;11.350;2022-12-18T03:55:09;-3.10;54.50
1025;DHT22;501;48.214;11.350;2022-12-18T03:57:36;-3.10;54.10
1025;DHT22;501;48.214;11.350;2022-12-18T04:00:09;-3.10;53.20
1025;DHT22;501;48.214;11.350;2022-12-18T04:02:38;-3.20;52.90
1025;DHT22;501;48.214;11.350;2022-12-18T04:05:07;-3.20;52.70
1025;DHT22;501;48.214;11.350;2022-12-18T04:07:34;-3.30;52.80
1025;DHT22;501;48.214;11.350;2022-12-18T04:10:01;-3.30;53.10
1025;DHT22;501;48.214;11.350;2022-12-18T04:12:29;-3.40;53.70
1025;DHT22;501;48.214;11.350;2022-12-18T04:14:55;-3.40;54.10
1025;DHT22;501;48.214;11.350;2022-12-18T04:17:20;-3.40;54.10
1025;DHT22;501;48.214;11.350;2022-12-18T04:19:46;-3.40;54.00
1025;DHT22;501;48.214;11.350;2022-12-18T04:22:12;-3.30;53.90
1025;DHT22;501;48.214;11.350;2022-12-18T04:24:37;-3.30;54.30
1025;DHT22;501;48.214;11.350;2022-12-18T04:27:04;-3.30;54.00
1025;DHT22;501;48.214;11.350;2022-12-18T04:29:30;-3.30;54.30
1025;DHT22;501;48.214;11.350;2022-12-18T04:31:56;-3.30;54.50
1025;DHT22;501;48.214;11.350;2022-12-18T04:34:21;-3.30;53.90
1025;DHT22;501;48.214;11.350;2022-12-18T04:36:47;-3.30;53.70
1025;DHT22;501;48.214;11.350;2022-12-18T04:39:14;-3.30;54.10
1025;DHT22;501;48.214;11.350;2022-12-18T04:41:42;-3.30;54.30
1025;DHT22;501;48.214;11.350;2022-12-18T04:44:08;-3.20;54.40
1025;DHT22;501;48.214;11.350;2022-12-18T04:46:34;-3.20;54.20
1025;DHT22;501;48.214;11.350;2022-12-18T04:48:59;-3.30;54.00
1025;DHT22;501;48.214;11.350;2022-12-18T04:51:25;-3.30;54.20
1025;DHT22;501;48.214;11.350;2022-12-18T04:53:50;-3.30;54.10
1025;DHT22;501;48.214;11.350;2022-12-18T04:56:16;-3.30;54.30
1025;DHT22;501;48.214;11.350;2022-12-18T04:58:43;-3.30;54.40
1025;DHT22;501;48.214;11.350;2022-12-18T05:01:11;-3.30;54.60
1025;DHT22;501;48.214;11.350;2022-12-18T05:03:37;-3.30;54.50
1025;DHT22;501;48.214;11.350;2022-12-18T05:06:04;-3.30;54.50
1025;DHT22;501;48.214;11.350;2022-12-18T05:08:30;-3.30;54.40
1025;DHT22;501;48.214;11.350;2022-12-18T05:11:05;-3.30;54.70
1025;DHT22;501;48.214;11.350;2022-12-18T05:13:31;-3.30;54.80
1025;DHT22;501;48.214;11.350;2022-12-18T05:15:58;-3.30;55.00
1025;DHT22;501;48.214;11.350;2022-12-18T05:18:24;-3.30;55.20
1025;DHT22;501;48.214;11.350;2022-12-18T05:20:53;-3.20;55.70
1025;DHT22;501;48.214;11.350;2022-12-18T05:23:20;-3.20;55.70
1025;DHT22;501;48.214;11.350;2022-12-18T05:25:54;-3.20;55.70
1025;DHT22;501;48.214;11.350;2022-12-18T05:28:21;-3.10;55.80
1025;DHT22;501;48.214;11.350;2022-12-18T05:31:05;-3.10;55.40
1025;DHT22;501;48.214;11.350;2022-12-18T05:33:33;-3.10;54.90
1025;DHT22;501;48.214;11.350;2022-12-18T05:36:00;-3.10;54.60
1025;DHT22;501;48.214;11.350;2022-12-18T05:38:27;-3.10;54.80
1025;DHT22;501;48.214;11.350;2022-12-18T05:40:54;-3.10;54.60
1025;DHT22;501;48.214;11.350;2022-12-18T05:43:20;-3.10;54.50
1025;DHT22;501;48.214;11.350;2022-12-18T05:45:50;-3.10;54.70
1025;DHT22;501;48.214;11.350;2022-12-18T05:48:16;-3.10;54.00
1025;DHT22;501;48.214;11.350;2022-12-18T05:50:44;-3.10;53.30
1025;DHT22;501;48.214;11.350;2022-12-18T05:53:14;-3.10;53.50
1025;DHT22;501;48.214;11.350;2022-12-18T05:55:41;-3.10;54.10
1025;DHT22;501;48.214;11.350;2022-12-18T05:58:08;-3.10;53.70
1025;DHT22;501;48.214;11.350;2022-12-18T06:00:37;-3.10;54.10
1025;DHT22;501;48.214;11.350;2022-12-18T06:03:10;-3.10;54.00
1025;DHT22;501;48.214;11.350;2022-12-18T06:05:37;-3.10;54.00
1025;DHT22;501;48.214;11.350;2022-12-18T06:08:03;-3.10;53.80
1025;DHT22;501;48.214;11.350;2022-12-18T06:10:29;-3.10;53.60
1025;DHT22;501;48.214;11.350;2022-12-18T06:12:54;-3.10;54.10
1025;DHT22;501;48.214;11.350;2022-12-18T06:15:20;-3.00;53.80
1025;DHT22;501;48.214;11.350;2022-12-18T06:17:45;-3.00;53.90
1025;DHT22;501;48.214;11.350;2022-12-18T06:20:11;-3.00;53.80
1025;DHT22;501;48.214;11.350;2022-12-18T06:22:37;-3.00;53.40
1025;DHT22;501;48.214;11.350;2022-12-18T06:25:03;-3.00;53.30
1025;DHT22;501;48.214;11.350;2022-12-18T06:27:28;-3.00;53.40
1025;DHT22;501;48.214;11.350;2022-12-18T06:29:54;-3.00;53.20
1025;DHT22;501;48.214;11.350;2022-12-18T06:32:20;-2.90;53.10
1025;DHT22;501;48.214;11.350;2022-12-18T06:34:45;-2.90;52.40
1025;DHT22;501;48.214;11.350;2022-12-18T06:37:11;-3.00;52.80
1025;DHT22;501;48.214;11.350;2022-12-18T06:39:36;-3.00;53.20
1025;DHT22;501;48.214;11.350;2022-12-18T06:42:03;-3.00;53.40
1025;DHT22;501;48.214;11.350;2022-12-18T06:44:28;-3.00;53.30
1025;DHT22;501;48.214;11.350;2022-12-18T06:46:54;-3.00;53.40
1025;DHT22;501;48.214;11.350;2022-12-18T06:49:20;-2.90;54.00
1025;DHT22;501;48.214;11.350;2022-12-18T06:51:46;-2.90;53.80
1025;DHT22;501;48.214;11.350;2022-12-18T06:54:12;-2.90;53.40
1025;DHT22;501;48.214;11.350;2022-12-18T06:56:38;-2.90;52.90
1025;DHT22;501;48.214;11.350;2022-12-18T06:59:04;-2.90;52.60
1025;DHT22;501;48.214;11.350;2022-12-18T07:01:29;-2.90;52.80
1025;DHT22;501;48.214;11.350;2022-12-18T07:03:56;-2.90;52.40
1025;DHT22;501;48.214;11.350;2022-12-18T07:06:24;-2.90;52.20
1025;DHT22;501;48.214;11.350;2022-12-18T07:08:52;-2.90;52.30
1025;DHT22;501;48.214;11.350;2022-12-18T07:11:18;-2.90;52.60
1025;DHT22;501;48.214;11.350;2022-12-18T07:13:45;-2.90;52.20
1025;DHT22;501;48.214;11.350;2022-12-18T07:16:18;-2.90;51.80
1025;DHT22;501;48.214;11.350;2022-12-18T07:18:45;-2.90;52.30
1025;DHT22;501;48.214;11.350;2022-12-18T07:21:14;-2.90;51.80
1025;DHT22;501;48.214;11.350;2022-12-18T07:23:39;-3.00;51.90
1025;DHT22;501;48.214;11.350;2022-12-18T07:26:07;-3.00;51.70
1025;DHT22;501;48.214;11.350;2022-12-18T07:28:36;-3.00;51.90
1025;DHT22;501;48.214;11.350;2022-12-18T07:31:19;-3.00;51.90
1025;DHT22;501;48.214;11.350;2022-12-18T07:33:46;-3.00;52.20
1025;DHT22;501;48.214;11.350;2022-12-18T07:36:12;-3.00;51.90
1025;DHT22;501;48.214;11.350;2022-12-18T07:38:38;-3.10;51.70
1025;DHT22;501;48.214;11.350;2022-12-18T07:41:06;-3.00;51.70
1025;DHT22;501;48.214;11.350;2022-12-18T07:43:33;-3.10;52.40
1025;DHT22;501;48.214;11.350;2022-12-18T07:45:58;-3.10;52.00
1025;DHT22;501;48.214;11.350;2022-12-18T07:48:24;-3.10;52.20
1025;DHT22;501;48.214;11.350;2022-12-18T07:50:50;-3.10;52.10
1025;DHT22;501;48.214;11.350;2022-12-18T07:53:15;-3.10;52.00
1025;DHT22;501;48.214;11.350;2022-12-18T07:55:41;-3.00;52.60
1025;DHT22;501;48.214;11.350;2022-12-18T07:58:07;-3.00;52.30
1025;DHT22;501;48.214;11.350;2022-12-18T08:00:33;-3.00;52.40
1025;DHT22;501;48.214;11.350;2022-12-18T08:02:59;-3.00;51.80
1025;DHT22;501;48.214;11.350;2022-12-18T08:05:25;-3.00;51.70
1025;DHT22;501;48.214;11.350;2022-12-18T08:07:51;-3.00;52.10
1025;DHT22;501;48.214;11.350;2022-12-18T08:10:17;-2.90;52.20
1025;DHT22;501;48.214;11.350;2022-12-18T08:12:42;-2.90;52.00
1025;DHT22;501;48.214;11.350;2022-12-18T08:15:08;-2.90;51.60
1025;DHT22;501;48.214;11.350;2022-12-18T08:17:34;-2.90;51.00
1025;DHT22;501;48.214;11.350;2022-12-18T08:20:00;-2.80;51.00
1025;DHT22;501;48.214;11.350;2022-12-18T08:22:25;-2.90;51.20
1025;DHT22;501;48.214;11.350;2022-12-18T08:24:51;-2.80;51.40
1025;DHT22;501;48.214;11.350;2022-12-18T08:27:16;-2.80;51.20
1025;DHT22;501;48.214;11.350;2022-12-18T08:29:42;-2.80;51.30
1025;DHT22;501;48.214;11.350;2022-12-18T08:32:08;-2.80;51.00
1025;DHT22;501;48.214;11.350;2022-12-18T08:34:33;-2.80;51.30
1025;DHT22;501;48.214;11.350;2022-12-18T08:36:59;-2.70;51.20
1025;DHT22;501;48.214;11.350;2022-12-18T08:39:25;-2.70;51.40
1025;DHT22;501;48.214;11.350;2022-12-18T08:41:50;-2.60;51.70
1025;DHT22;501;48.214;11.350;2022-12-18T08:44:34;-2.60;51.20
1025;DHT22;501;48.214;11.350;2022-12-18T08:47:03;-2.60;50.50
1025;DHT22;501;48.214;11.350;2022-12-18T08:49:29;-2.50;49.90
1025;DHT22;501;48.214;11.350;2022-12-18T08:51:55;-2.60;49.50
1025;DHT22;501;48.214;11.350;2022-12-18T08:54:22;-2.50;49.80
1025;DHT22;501;48.214;11.350;2022-12-18T08:56:48;-2.50;49.70
1025;DHT22;501;48.214;11.350;2022-12-18T08:59:18;-2.50;49.80
1025;DHT22;501;48.214;11.350;2022-12-18T09:01:44;-2.50;50.10
1025;DHT22;501;48.214;11.350;2022-12-18T09:04:10;-2.40;49.30
1025;DHT22;501;48.214;11.350;2022-12-18T09:06:36;-2.40;49.40
1025;DHT22;501;48.214;11.350;2022-12-18T09:09:03;-2.40;49.20
1025;DHT22;501;48.214;11.350;2022-12-18T09:11:29;-2.30;49.10
1025;DHT22;501;48.214;11.350;2022-12-18T09:13:56;-2.30;48.80
1025;DHT22;501;48.214;11.350;2022-12-18T09:16:23;-2.30;48.70
1025;DHT22;501;48.214;11.350;2022-12-18T09:18:49;-2.30;48.70
1025;DHT22;501;48.214;11.350;2022-12-18T09:21:20;-2.20;48.20
1025;DHT22;501;48.214;11.350;2022-12-18T09:23:53;-2.20;48.20
1025;DHT22;501;48.214;11.350;2022-12-18T09:26:20;-2.20;48.20
1025;DHT22;501;48.214;11.350;2022-12-18T09:28:46;-2.20;48.20
1025;DHT22;501;48.214;11.350;2022-12-18T09:31:14;-2.20;47.50
1025;DHT22;501;48.214;11.350;2022-12-18T09:33:41;-2.20;47.00
1025;DHT22;501;48.214;11.350;2022-12-18T09:36:09;-2.20;47.90
1025;DHT22;501;48.214;11.350;2022-12-18T09:38:35;-2.20;47.70
1025;DHT22;501;48.214;11.350;2022-12-18T09:41:13;-2.20;47.80
1025;DHT22;501;48.214;11.350;2022-12-18T09:43:52;-2.20;48.20
1025;DHT22;501;48.214;11.350;2022-12-18T09:46:27;-2.10;48.30
1025;DHT22;501;48.214;11.350;2022-12-18T09:48:58;-2.10;48.90
1025;DHT22;501;48.214;11.350;2022-12-18T09:51:36;-2.00;48.20
1025;DHT22;501;48.214;11.350;2022-12-18T09:54:11;-2.00;46.90
1025;DHT22;501;48.214;11.350;2022-12-18T09:56:41;-2.00;47.00
1025;DHT22;501;48.214;11.350;2022-12-18T09:59:22;-2.00;47.20
1025;DHT22;501;48.214;11.350;2022-12-18T10:01:49;-2.00;46.70
1025;DHT22;501;48.214;11.350;2022-12-18T10:04:15;-2.00;46.90
1025;DHT22;501;48.214;11.350;2022-12-18T10:07:25;-2.00;47.10
1025;DHT22;501;48.214;11.350;2022-12-18T10:10:07;-2.00;47.40
1025;DHT22;501;48.214;11.350;2022-12-18T10:12:39;-1.90;47.70
1025;DHT22;501;48.214;11.350;2022-12-18T10:18:29;-1.80;48.30
1025;DHT22;501;48.214;11.350;2022-12-18T10:21:18;-1.80;47.00
1025;DHT22;501;48.214;11.350;2022-12-18T10:26:26;-1.80;46.00
1025;DHT22;501;48.214;11.350;2022-12-18T10:28:53;-1.70;46.20
1025;DHT22;501;48.214;11.350;2022-12-18T10:31:24;-1.70;46.50
1025;DHT22;501;48.214;11.350;2022-12-18T10:33:50;-1.70;46.50
1025;DHT22;501;48.214;11.350;2022-12-18T10:36:16;-1.70;46.20
1025;DHT22;501;48.214;11.350;2022-12-18T10:38:41;-1.60;45.70
1025;DHT22;501;48.214;11.350;2022-12-18T10:43:47;-1.70;46.00
1025;DHT22;501;48.214;11.350;2022-12-18T10:46:19;-1.70;46.90
1025;DHT22;501;48.214;11.350;2022-12-18T10:48:50;-1.60;46.40
1025;DHT22;501;48.214;11.350;2022-12-18T10:51:36;-1.60;46.70
1025;DHT22;501;48.214;11.350;2022-12-18T10:56:40;-1.50;47.00
1025;DHT22;501;48.214;11.350;2022-12-18T10:59:09;-1.50;47.20
1025;DHT22;501;48.214;11.350;2022-12-18T11:01:57;-1.40;47.10
1025;DHT22;501;48.214;11.350;2022-12-18T11:04:26;-1.30;46.70
1025;DHT22;501;48.214;11.350;2022-12-18T11:07:00;-1.30;45.80
1025;DHT22;501;48.214;11.350;2022-12-18T11:09:38;-1.20;46.00
1025;DHT22;501;48.214;11.350;2022-12-18T11:14:51;-1.10;45.60
1025;DHT22;501;48.214;11.350;2022-12-18T11:20:02;-1.00;44.70
1025;DHT22;501;48.214;11.350;2022-12-18T11:22:31;-1.00;44.30
1025;DHT22;501;48.214;11.350;2022-12-18T11:25:16;-0.90;44.00
1025;DHT22;501;48.214;11.350;2022-12-18T11:27:52;-1.00;43.20
1025;DHT22;501;48.214;11.350;2022-12-18T11:30:33;-1.00;42.10
1025;DHT22;501;48.214;11.350;2022-12-18T11:33:25;-1.00;42.50
1025;DHT22;501;48.214;11.350;2022-12-18T11:35:55;-1.10;42.30
1025;DHT22;501;48.214;11.350;2022-12-18T11:38:32;-1.10;42.60
1025;DHT22;501;48.214;11.350;2022-12-18T11:44:06;-1.20;42.70
1025;DHT22;501;48.214;11.350;2022-12-18T11:46:39;-1.30;43.10
1025;DHT22;501;48.214;11.350;2022-12-18T11:49:17;-1.40;42.10
1025;DHT22;501;48.214;11.350;2022-12-18T11:51:53;-1.40;42.50
1025;DHT22;501;48.214;11.350;2022-12-18T11:54:21;-1.50;43.20
1025;DHT22;501;48.214;11.350;2022-12-18T11:56:51;-1.50;43.10
1025;DHT22;501;48.214;11.350;2022-12-18T12:02:28;-1.50;43.20
1025;DHT22;501;48.214;11.350;2022-12-18T12:07:39;-1.60;42.70
1025;DHT22;501;48.214;11.350;2022-12-18T12:13:17;-1.70;44.30
1025;DHT22;501;48.214;11.350;2022-12-18T12:16:09;-1.80;43.70
1025;DHT22;501;48.214;11.350;2022-12-18T12:22:03;-1.90;43.70
1025;DHT22;501;48.214;11.350;2022-12-18T12:28:19;-2.00;43.80
1025;DHT22;501;48.214;11.350;2022-12-18T12:33:47;-2.10;44.90
1025;DHT22;501;48.214;11.350;2022-12-18T12:36:38;-2.10;44.90
1025;DHT22;501;48.214;11.350;2022-12-18T12:39:15;-2.10;45.10
1025;DHT22;501;48.214;11.350;2022-12-18T12:41:42;-2.10;44.90
1025;DHT22;501;48.214;11.350;2022-12-18T12:44:39;-2.10;45.50
1025;DHT22;501;48.214;11.350;2022-12-18T12:47:20;-2.10;45.40
1025;DHT22;501;48.214;11.350;2022-12-18T12:49:48;-2.10;45.20
1025;DHT22;501;48.214;11.350;2022-12-18T12:55:25;-2.00;45.80
1025;DHT22;501;48.214;11.350;2022-12-18T12:57:59;-1.90;45.60
1025;DHT22;501;48.214;11.350;2022-12-18T13:00:41;-1.90;45.30
1025;DHT22;501;48.214;11.350;2022-12-18T13:05:54;-1.80;44.30
1025;DHT22;501;48.214;11.350;2022-12-18T13:08:31;-1.90;44.40
1025;DHT22;501;48.214;11.350;2022-12-18T13:10:58;-1.90;44.90
1025;DHT22;501;48.214;11.350;2022-12-18T13:13:56;-1.90;44.80
1025;DHT22;501;48.214;11.350;2022-12-18T13:16:23;-1.90;45.00
1025;DHT22;501;48.214;11.350;2022-12-18T13:18:51;-1.90;45.10
1025;DHT22;501;48.214;11.350;2022-12-18T13:21:24;-1.90;44.90
1025;DHT22;501;48.214;11.350;2022-12-18T13:23:53;-1.90;45.40
1025;DHT22;501;48.214;11.350;2022-12-18T13:34:18;-2.00;45.00
1025;DHT22;501;48.214;11.350;2022-12-18T13:36:44;-2.00;44.90
1025;DHT22;501;48.214;11.350;2022-12-18T13:41:42;-2.00;44.70
1025;DHT22;501;48.214;11.350;2022-12-18T13:46:45;-2.10;45.20
1025;DHT22;501;48.214;11.350;2022-12-18T13:52:00;-2.20;45.30
1025;DHT22;501;48.214;11.350;2022-12-18T13:54:36;-2.20;45.60
1025;DHT22;501;48.214;11.350;2022-12-18T13:57:05;-2.30;45.40
1025;DHT22;501;48.214;11.350;2022-12-18T13:59:36;-2.30;45.40
1025;DHT22;501;48.214;11.350;2022-12-18T14:04:38;-2.50;45.80
1025;DHT22;501;48.214;11.350;2022-12-18T14:07:06;-2.50;46.10
1025;DHT22;501;48.214;11.350;2022-12-18T14:09:39;-2.60;46.50
1025;DHT22;501;48.214;11.350;2022-12-18T14:12:12;-2.60;47.80
1025;DHT22;501;48.214;11.350;2022-12-18T14:14:58;-2.50;47.90
1025;DHT22;501;48.214;11.350;2022-12-18T14:17:24;-2.50;48.00
1025;DHT22;501;48.214;11.350;2022-12-18T14:19:50;-2.50;48.00
1025;DHT22;501;48.214;11.350;2022-12-18T14:22:21;-2.50;48.00
1025;DHT22;501;48.214;11.350;2022-12-18T14:27:44;-2.40;48.00
1025;DHT22;501;48.214;11.350;2022-12-18T14:30:37;-2.40;47.50
1025;DHT22;501;48.214;11.350;2022-12-18T14:33:17;-2.40;47.40
1025;DHT22;501;48.214;11.350;2022-12-18T14:36:01;-2.40;47.00
1025;DHT22;501;48.214;11.350;2022-12-18T14:38:40;-2.40;47.50
1025;DHT22;501;48.214;11.350;2022-12-18T14:41:10;-2.50;47.90
1025;DHT22;501;48.214;11.350;2022-12-18T14:43:41;-2.40;48.00
1025;DHT22;501;48.214;11.350;2022-12-18T14:46:36;-2.50;47.90
1025;DHT22;501;48.214;11.350;2022-12-18T14:52:20;-2.40;48.00
1025;DHT22;501;48.214;11.350;2022-12-18T14:54:48;-2.40;47.30
1025;DHT22;501;48.214;11.350;2022-12-18T14:59:42;-2.50;47.10
1025;DHT22;501;48.214;11.350;2022-12-18T15:04:42;-2.50;47.60
1025;DHT22;501;48.214;11.350;2022-12-18T15:07:20;-2.60;47.80
1025;DHT22;501;48.214;11.350;2022-12-18T15:12:45;-2.60;47.90
1025;DHT22;501;48.214;11.350;2022-12-18T15:17:59;-2.60;47.80
1025;DHT22;501;48.214;11.350;2022-12-18T15:20:25;-2.60;47.90
1025;DHT22;501;48.214;11.350;2022-12-18T15:22:51;-2.60;47.90
1025;DHT22;501;48.214;11.350;2022-12-18T15:27:54;-2.60;47.90
1025;DHT22;501;48.214;11.350;2022-12-18T15:30:21;-2.60;47.90
1025;DHT22;501;48.214;11.350;2022-12-18T15:32:48;-2.60;47.80
1025;DHT22;501;48.214;11.350;2022-12-18T15:35:23;-2.60;47.90
1025;DHT22;501;48.214;11.350;2022-12-18T15:37:52;-2.60;47.90
1025;DHT22;501;48.214;11.350;2022-12-18T15:40:20;-2.60;47.80
1025;DHT22;501;48.214;11.350;2022-12-18T15:42:47;-2.60;47.90
1025;DHT22;501;48.214;11.350;2022-12-18T15:45:32;-2.60;47.90
1025;DHT22;501;48.214;11.350;2022-12-18T15:47:57;-2.60;47.90
1025;DHT22;501;48.214;11.350;2022-12-18T15:50:24;-2.60;47.80
1025;DHT22;501;48.214;11.350;2022-12-18T15:52:51;-2.60;47.90
1025;DHT22;501;48.214;11.350;2022-12-18T15:55:22;-2.50;48.00
1025;DHT22;501;48.214;11.350;2022-12-18T15:58:08;-2.50;48.00
1025;DHT22;501;48.214;11.350;2022-12-18T16:00:36;-2.50;47.90
1025;DHT22;501;48.214;11.350;2022-12-18T16:03:03;-2.50;48.00
1025;DHT22;501;48.214;11.350;2022-12-18T16:05:29;-2.50;48.20
1025;DHT22;501;48.214;11.350;2022-12-18T16:07:55;-2.50;48.50
1025;DHT22;501;48.214;11.350;2022-12-18T16:10:21;-2.50;48.60
1025;DHT22;501;48.214;11.350;2022-12-18T16:12:47;-2.50;48.30
1025;DHT22;501;48.214;11.350;2022-12-18T16:15:14;-2.50;48.30
1025;DHT22;501;48.214;11.350;2022-12-18T16:17:42;-2.50;48.60
1025;DHT22;501;48.214;11.350;2022-12-18T16:20:20;-2.50;48.10
1025;DHT22;501;48.214;11.350;2022-12-18T16:22:46;-2.50;48.30
1025;DHT22;501;48.214;11.350;2022-12-18T16:25:33;-2.50;48.30
1025;DHT22;501;48.214;11.350;2022-12-18T16:27:58;-2.50;48.60
1025;DHT22;501;48.214;11.350;2022-12-18T16:30:29;-2.50;48.70
1025;DHT22;501;48.214;11.350;2022-12-18T16:32:56;-2.50;48.90
1025;DHT22;501;48.214;11.350;2022-12-18T16:35:24;-2.50;49.10
1025;DHT22;501;48.214;11.350;2022-12-18T16:37:50;-2.50;49.00
1025;DHT22;501;48.214;11.350;2022-12-18T16:40:17;-2.50;48.80
1025;DHT22;501;48.214;11.350;2022-12-18T16:42:44;-2.50;48.60
1025;DHT22;501;48.214;11.350;2022-12-18T16:45:12;-2.50;48.90
1025;DHT22;501;48.214;11.350;2022-12-18T16:47:39;-2.50;49.10
1025;DHT22;501;48.214;11.350;2022-12-18T16:50:06;-2.40;49.10
1025;DHT22;501;48.214;11.350;2022-12-18T16:52:32;-2.40;49.00
1025;DHT22;501;48.214;11.350;2022-12-18T16:54:58;-2.40;48.70
1025;DHT22;501;48.214;11.350;2022-12-18T16:57:23;-2.40;48.70
1025;DHT22;501;48.214;11.350;2022-12-18T16:59:49;-2.40;48.80
1025;DHT22;501;48.214;11.350;2022-12-18T17:02:21;-2.40;48.70
1025;DHT22;501;48.214;11.350;2022-12-18T17:04:48;-2.40;48.80
1025;DHT22;501;48.214;11.350;2022-12-18T17:07:14;-2.40;48.80
1025;DHT22;501;48.214;11.350;2022-12-18T17:09:40;-2.30;48.90
1025;DHT22;501;48.214;11.350;2022-12-18T17:12:06;-2.30;49.00
1025;DHT22;501;48.214;11.350;2022-12-18T17:14:33;-2.30;48.90
1025;DHT22;501;48.214;11.350;2022-12-18T17:16:59;-2.30;49.00
1025;DHT22;501;48.214;11.350;2022-12-18T17:19:25;-2.30;48.70
1025;DHT22;501;48.214;11.350;2022-12-18T17:21:51;-2.30;48.80
1025;DHT22;501;48.214;11.350;2022-12-18T17:24:18;-2.30;48.50
1025;DHT22;501;48.214;11.350;2022-12-18T17:26:44;-2.30;48.70
1025;DHT22;501;48.214;11.350;2022-12-18T17:29:14;-2.30;48.90
1025;DHT22;501;48.214;11.350;2022-12-18T17:31:40;-2.30;48.50
1025;DHT22;501;48.214;11.350;2022-12-18T17:34:08;-2.30;48.60
1025;DHT22;501;48.214;11.350;2022-12-18T17:36:34;-2.30;48.80
1025;DHT22;501;48.214;11.350;2022-12-18T17:39:00;-2.30;48.70
1025;DHT22;501;48.214;11.350;2022-12-18T17:41:27;-2.30;48.70
1025;DHT22;501;48.214;11.350;2022-12-18T17:43:56;-2.30;48.40
1025;DHT22;501;48.214;11.350;2022-12-18T17:46:23;-2.30;48.40
1025;DHT22;501;48.214;11.350;2022-12-18T17:48:49;-2.30;48.20
1025;DHT22;501;48.214;11.350;2022-12-18T17:51:15;-2.30;48.10
1025;DHT22;501;48.214;11.350;2022-12-18T17:53:41;-2.30;48.10
1025;DHT22;501;48.214;11.350;2022-12-18T17:56:11;-2.30;48.80
1025;DHT22;501;48.214;11.350;2022-12-18T17:58:36;-2.40;48.00
1025;DHT22;501;48.214;11.350;2022-12-18T18:01:04;-2.40;48.00
1025;DHT22;501;48.214;11.350;2022-12-18T18:03:31;-2.40;48.00
1025;DHT22;501;48.214;11.350;2022-12-18T18:05:59;-2.50;48.30